sensor_id;sensor_type;location;lat;lon;timestamp;temperature;humidity
28171;DHT22;15458;53.346;-1.688;2024-02-28T00:01:08;3.40;99.90
28171;DHT22;15458;53.346;-1.688;2024-02-28T00:03:34;3.40;99.90
28171;DHT22;15458;53.346;-1.688;2024-02-28T00:06:00;3.40;99.90
28171;DHT22;15458;53.346;-1.688;2024-02-28T00:08:25;3.40;99.90
28171;DHT22;15458;53.346;-1.688;2024-02-28T00:10:51;3.40;99.90
28171;DHT22;15458;53.346;-1.688;2024-02-28T00:13:17;3.40;99.90
28171;DHT22;15458;53.346;-1.688;2024-02-28T00:15:43;3.40;99.90
28171;DHT22;15458;53.346;-1.688;2024-02-28T00:18:09;3.50;99.90
28171;DHT22;15458;53.346;-1.688;2024-02-28T00:20:35;3.50;99.90
28171;DHT22;15458;53.346;-1.688;2024-02-28T00:23:01;3.50;99.90
28171;DHT22;15458;53.346;-1.688;2024-02-28T00:25:26;3.50;99.90
28171;DHT22;15458;53.346;-1.688;2024-02-28T00:27:52;3.60;99.90
28171;DHT22;15458;53.346;-1.688;2024-02-28T00:30:18;3.60;99.90
28171;DHT22;15458;53.346;-1.688;2024-02-28T00:32:44;3.60;99.90
28171;DHT22;15458;53.346;-1.688;2024-02-28T00:35:09;3.60;99.90
28171;DHT22;15458;53.346;-1.688;2024-02-28T00:37:35;3.60;99.90
28171;DHT22;15458;53.346;-1.688;2024-02-28T00:40:01;3.80;99.90
28171;DHT22;15458;53.346;-1.688;2024-02-28T00:42:27;3.80;99.90
28171;DHT22;15458;53.346;-1.688;2024-02-28T00:44:52;3.80;99.90
28171;DHT22;15458;53.346;-1.688;2024-02-28T00:47:18;3.80;99.90
28171;DHT22;15458;53.346;-1.688;2024-02-28T00:49:44;3.80;99.90
28171;DHT22;15458;53.346;-1.688;2024-02-28T00:52:09;3.90;99.90
28171;DHT22;15458;53.346;-1.688;2024-02-28T00:54:36;3.90;99.90
28171;DHT22;15458;53.346;-1.688;2024-02-28T00:57:02;3.90;99.90
28171;DHT22;15458;53.346;-1.688;2024-02-28T00:59:28;3.90;99.90
28171;DHT22;15458;53.346;-1.688;2024-02-28T01:01:53;3.90;99.90
28171;DHT22;15458;53.346;-1.688;2024-02-28T01:04:19;3.90;99.90
28171;DHT22;15458;53.346;-1.688;2024-02-28T01:06:45;3.80;99.90
28171;DHT22;15458;53.346;-1.688;2024-02-28T01:09:10;3.80;99.90
28171;DHT22;15458;53.346;-1.688;2024-02-28T01:11:36;3.80;99.90
28171;DHT22;15458;53.346;-1.688;2024-02-28T01:14:02;3.80;99.90
28171;DHT22;15458;53.346;-1.688;2024-02-28T01:16:27;3.80;99.90
28171;DHT22;15458;53.346;-1.688;2024-02-28T01:18:53;3.80;99.90
28171;DHT22;15458;53.346;-1.688;2024-02-28T01:21:19;3.80;99.90
28171;DHT22;15458;53.346;-1.688;2024-02-28T01:23:45;3.80;99.90
28171;DHT22;15458;53.346;-1.688;2024-02-28T01:26:10;3.80;99.90
28171;DHT22;15458;53.346;-1.688;2024-02-28T01:28:36;3.80;99.90
28171;DHT22;15458;53.346;-1.688;2024-02-28T01:31:02;3.80;99.90
28171;DHT22;15458;53.346;-1.688;2024-02-28T01:33:28;3.80;99.90
28171;DHT22;15458;53.346;-1.688;2024-02-28T01:35:54;3.80;99.90
28171;DHT22;15458;53.346;-1.688;2024-02-28T01:38:20;3.80;99.90
28171;DHT22;15458;53.346;-1.688;2024-02-28T01:40:46;3.80;99.90
28171;DHT22;15458;53.346;-1.688;2024-02-28T01:43:12;3.70;99.90
28171;DHT22;15458;53.346;-1.688;2024-02-28T01:45:38;3.80;99.90
28171;DHT22;15458;53.346;-1.688;2024-02-28T01:48:06;3.70;99.90
28171;DHT22;15458;53.346;-1.688;2024-02-28T01:50:33;3.70;99.90
28171;DHT22;15458;53.346;-1.688;2024-02-28T01:52:59;3.70;99.90
28171;DHT22;15458;53.346;-1.688;2024-02-28T01:55:25;3.70;99.90
28171;DHT22;15458;53.346;-1.688;2024-02-28T01:57:52;3.70;99.90
28171;DHT22;15458;53.346;-1.688;2024-02-28T02:00:19;3.60;99.90
28171;DHT22;15458;53.346;-1.688;2024-02-28T02:02:47;3.60;99.90
28171;DHT22;15458;53.346;-1.688;2024-02-28T02:05:13;3.60;99.90
28171;DHT22;15458;53.346;-1.688;2024-02-28T02:07:41;3.60;99.90
28171;DHT22;15458;53.346;-1.688;2024-02-28T02:10:07;3.60;99.90
28171;DHT22;15458;53.346;-1.688;2024-02-28T02:12:36;3.60;99.90
28171;DHT22;15458;53.346;-1.688;2024-02-28T02:15:01;3.60;99.90
28171;DHT22;15458;53.346;-1.688;2024-02-28T02:17:27;3.60;99.90
28171;DHT22;15458;53.346;-1.688;2024-02-28T02:19:53;3.60;99.90
28171;DHT22;15458;53.346;-1.688;2024-02-28T02:22:20;3.60;99.90
28171;DHT22;15458;53.346;-1.688;2024-02-28T02:24:45;3.60;99.90
28171;DHT22;15458;53.346;-1.688;2024-02-28T02:27:11;3.60;99.90
28171;DHT22;15458;53.346;-1.688;2024-02-28T02:29:37;3.60;99.90
28171;DHT22;15458;53.346;-1.688;2024-02-28T02:32:03;3.60;99.90
28171;DHT22;15458;53.346;-1.688;2024-02-28T02:34:29;3.70;99.90
28171;DHT22;15458;53.346;-1.688;2024-02-28T02:36:54;3.70;99.90
28171;DHT22;15458;53.346;-1.688;2024-02-28T02:39:20;3.70;99.90
28171;DHT22;15458;53.346;-1.688;2024-02-28T02:41:46;3.60;99.90
28171;DHT22;15458;53.346;-1.688;2024-02-28T02:44:12;3.60;99.90
28171;DHT22;15458;53.346;-1.688;2024-02-28T02:46:38;3.60;99.90
28171;DHT22;15458;53.346;-1.688;2024-02-28T02:49:04;3.60;99.90
28171;DHT22;15458;53.346;-1.688;2024-02-28T02:51:30;3.60;99.90
28171;DHT22;15458;53.346;-1.688;2024-02-28T02:53:56;3.60;99.90
28171;DHT22;15458;53.346;-1.688;2024-02-28T02:56:21;3.60;99.90
28171;DHT22;15458;53.346;-1.688;2024-02-28T02:58:47;3.50;99.90
28171;DHT22;15458;53.346;-1.688;2024-02-28T03:01:12;3.50;99.90
28171;DHT22;15458;53.346;-1.688;2024-02-28T03:03:38;3.50;99.90
28171;DHT22;15458;53.346;-1.688;2024-02-28T03:06:04;3.50;99.90
28171;DHT22;15458;53.346;-1.688;2024-02-28T03:08:31;3.50;99.90
28171;DHT22;15458;53.346;-1.688;2024-02-28T03:10:56;3.40;99.90
28171;DHT22;15458;53.346;-1.688;2024-02-28T03:13:22;3.40;99.90
28171;DHT22;15458;53.346;-1.688;2024-02-28T03:15:48;3.30;99.90
28171;DHT22;15458;53.346;-1.688;2024-02-28T03:18:14;3.30;99.90
28171;DHT22;15458;53.346;-1.688;2024-02-28T03:20:39;3.30;99.90
28171;DHT22;15458;53.346;-1.688;2024-02-28T03:23:05;3.30;99.90
28171;DHT22;15458;53.346;-1.688;2024-02-28T03:25:34;3.20;99.90
28171;DHT22;15458;53.346;-1.688;2024-02-28T03:28:00;3.20;99.90
28171;DHT22;15458;53.346;-1.688;2024-02-28T03:30:26;3.20;99.90
28171;DHT22;15458;53.346;-1.688;2024-02-28T03:32:52;3.20;99.90
28171;DHT22;15458;53.346;-1.688;2024-02-28T03:35:18;3.20;99.90
28171;DHT22;15458;53.346;-1.688;2024-02-28T03:37:43;3.20;99.90
28171;DHT22;15458;53.346;-1.688;2024-02-28T03:40:09;3.20;99.90
28171;DHT22;15458;53.346;-1.688;2024-02-28T03:42:35;3.20;99.90
28171;DHT22;15458;53.346;-1.688;2024-02-28T03:45:00;3.10;99.90
28171;DHT22;15458;53.346;-1.688;2024-02-28T03:47:26;3.10;99.90
28171;DHT22;15458;53.346;-1.688;2024-02-28T03:49:52;3.10;99.90
28171;DHT22;15458;53.346;-1.688;2024-02-28T03:52:17;3.10;99.90
28171;DHT22;15458;53.346;-1.688;2024-02-28T03:54:43;3.10;99.90
28171;DHT22;15458;53.346;-1.688;2024-02-28T03:57:09;3.10;99.90
28171;DHT22;15458;53.346;-1.688;2024-02-28T03:59:35;3.10;99.90
28171;DHT22;15458;53.346;-1.688;2024-02-28T04:02:01;3.10;99.90
28171;DHT22;15458;53.346;-1.688;2024-02-28T04:04:27;3.20;99.90
28171;DHT22;15458;53.346;-1.688;2024-02-28T04:06:53;3.20;99.90
28171;DHT22;15458;53.346;-1.688;2024-02-28T04:09:19;3.20;99.90
28171;DHT22;15458;53.346;-1.688;2024-02-28T04:11:45;3.20;99.90
28171;DHT22;15458;53.346;-1.688;2024-02-28T04:14:11;3.20;99.90
28171;DHT22;15458;53.346;-1.688;2024-02-28T04:16:43;3.10;99.90
28171;DHT22;15458;53.346;-1.688;2024-02-28T04:19:10;3.10;99.90
28171;DHT22;15458;53.346;-1.688;2024-02-28T04:21:36;3.10;99.90
28171;DHT22;15458;53.346;-1.688;2024-02-28T04:24:02;3.00;99.90
28171;DHT22;15458;53.346;-1.688;2024-02-28T04:26:28;3.00;99.90
28171;DHT22;15458;53.346;-1.688;2024-02-28T04:28:55;3.00;99.90
28171;DHT22;15458;53.346;-1.688;2024-02-28T04:31:21;2.90;99.90
28171;DHT22;15458;53.346;-1.688;2024-02-28T04:33:47;3.00;99.90
28171;DHT22;15458;53.346;-1.688;2024-02-28T04:36:13;3.00;99.90
28171;DHT22;15458;53.346;-1.688;2024-02-28T04:38:40;2.90;99.90
28171;DHT22;15458;53.346;-1.688;2024-02-28T04:41:06;3.00;99.90
28171;DHT22;15458;53.346;-1.688;2024-02-28T04:43:31;3.00;99.90
28171;DHT22;15458;53.346;-1.688;2024-02-28T04:45:57;3.10;99.90
28171;DHT22;15458;53.346;-1.688;2024-02-28T04:48:23;3.10;99.90
28171;DHT22;15458;53.346;-1.688;2024-02-28T04:50:51;3.10;99.90
28171;DHT22;15458;53.346;-1.688;2024-02-28T04:53:17;3.10;99.90
28171;DHT22;15458;53.346;-1.688;2024-02-28T04:55:42;3.10;99.90
28171;DHT22;15458;53.346;-1.688;2024-02-28T04:58:08;3.00;99.90
28171;DHT22;15458;53.346;-1.688;2024-02-28T05:00:34;3.00;99.90
28171;DHT22;15458;53.346;-1.688;2024-02-28T05:03:00;3.00;99.90
28171;DHT22;15458;53.346;-1.688;2024-02-28T05:05:26;3.00;99.90
28171;DHT22;15458;53.346;-1.688;2024-02-28T05:07:51;3.00;99.90
28171;DHT22;15458;53.346;-1.688;2024-02-28T05:10:17;3.00;99.90
28171;DHT22;15458;53.346;-1.688;2024-02-28T05:12:43;3.00;99.90
28171;DHT22;15458;53.346;-1.688;2024-02-28T05:15:08;3.00;99.90
28171;DHT22;15458;53.346;-1.688;2024-02-28T05:17:34;3.00;99.90
28171;DHT22;15458;53.346;-1.688;2024-02-28T05:20:00;3.10;99.90
28171;DHT22;15458;53.346;-1.688;2024-02-28T05:22:26;3.10;99.90
28171;DHT22;15458;53.346;-1.688;2024-02-28T05:24:51;3.00;99.90
28171;DHT22;15458;53.346;-1.688;2024-02-28T05:27:17;3.00;99.90
28171;DHT22;15458;53.346;-1.688;2024-02-28T05:29:43;3.10;99.90
28171;DHT22;15458;53.346;-1.688;2024-02-28T05:32:09;3.00;99.90
28171;DHT22;15458;53.346;-1.688;2024-02-28T05:34:35;3.00;99.90
28171;DHT22;15458;53.346;-1.688;2024-02-28T05:37:00;3.00;99.90
28171;DHT22;15458;53.346;-1.688;2024-02-28T05:39:27;3.00;99.90
28171;DHT22;15458;53.346;-1.688;2024-02-28T05:41:56;3.00;99.90
28171;DHT22;15458;53.346;-1.688;2024-02-28T05:44:22;3.00;99.90
28171;DHT22;15458;53.346;-1.688;2024-02-28T05:46:50;3.00;99.90
28171;DHT22;15458;53.346;-1.688;2024-02-28T05:49:15;3.10;99.90
28171;DHT22;15458;53.346;-1.688;2024-02-28T05:51:41;3.10;99.90
28171;DHT22;15458;53.346;-1.688;2024-02-28T05:54:07;3.10;99.90
28171;DHT22;15458;53.346;-1.688;2024-02-28T05:56:32;3.10;99.90
28171;DHT22;15458;53.346;-1.688;2024-02-28T05:58:58;3.20;99.90
28171;DHT22;15458;53.346;-1.688;2024-02-28T06:01:24;3.20;99.90
28171;DHT22;15458;53.346;-1.688;2024-02-28T06:03:49;3.20;99.90
28171;DHT22;15458;53.346;-1.688;2024-02-28T06:06:16;3.20;99.90
28171;DHT22;15458;53.346;-1.688;2024-02-28T06:08:43;3.20;99.90
28171;DHT22;15458;53.346;-1.688;2024-02-28T06:11:09;3.30;99.90
28171;DHT22;15458;53.346;-1.688;2024-02-28T06:13:36;3.20;99.90
28171;DHT22;15458;53.346;-1.688;2024-02-28T06:16:02;3.30;99.90
28171;DHT22;15458;53.346;-1.688;2024-02-28T06:18:29;3.20;99.90
28171;DHT22;15458;53.346;-1.688;2024-02-28T06:21:01;3.30;99.90
28171;DHT22;15458;53.346;-1.688;2024-02-28T06:23:27;3.30;99.90
28171;DHT22;15458;53.346;-1.688;2024-02-28T06:25:53;3.30;99.90
28171;DHT22;15458;53.346;-1.688;2024-02-28T06:28:19;3.30;99.90
28171;DHT22;15458;53.346;-1.688;2024-02-28T06:30:45;3.30;99.90
28171;DHT22;15458;53.346;-1.688;2024-02-28T06:33:13;3.40;99.90
28171;DHT22;15458;53.346;-1.688;2024-02-28T06:35:40;3.40;99.90
28171;DHT22;15458;53.346;-1.688;2024-02-28T06:38:06;3.40;99.90
28171;DHT22;15458;53.346;-1.688;2024-02-28T06:40:32;3.40;99.90
28171;DHT22;15458;53.346;-1.688;2024-02-28T06:42:58;3.40;99.90
28171;DHT22;15458;53.346;-1.688;2024-02-28T06:45:24;3.40;99.90
28171;DHT22;15458;53.346;-1.688;2024-02-28T06:47:50;3.50;99.90
28171;DHT22;15458;53.346;-1.688;2024-02-28T06:50:16;3.40;99.90
28171;DHT22;15458;53.346;-1.688;2024-02-28T06:52:42;3.40;99.90
28171;DHT22;15458;53.346;-1.688;2024-02-28T06:55:08;3.40;99.90
28171;DHT22;15458;53.346;-1.688;2024-02-28T06:57:41;3.40;99.90
28171;DHT22;15458;53.346;-1.688;2024-02-28T07:00:08;3.40;99.90
28171;DHT22;15458;53.346;-1.688;2024-02-28T07:02:35;3.40;99.90
28171;DHT22;15458;53.346;-1.688;2024-02-28T07:05:02;3.40;99.90
28171;DHT22;15458;53.346;-1.688;2024-02-28T07:07:30;3.40;99.90
28171;DHT22;15458;53.346;-1.688;2024-02-28T07:09:56;3.40;99.90
28171;DHT22;15458;53.346;-1.688;2024-02-28T07:12:22;3.40;99.90
28171;DHT22;15458;53.346;-1.688;2024-02-28T07:14:47;3.40;99.90
28171;DHT22;15458;53.346;-1.688;2024-02-28T07:17:13;3.40;99.90
28171;DHT22;15458;53.346;-1.688;2024-02-28T07:19:39;3.40;99.90
28171;DHT22;15458;53.346;-1.688;2024-02-28T07:22:04;3.50;99.90
28171;DHT22;15458;53.346;-1.688;2024-02-28T07:24:31;3.50;99.90
28171;DHT22;15458;53.346;-1.688;2024-02-28T07:26:57;3.50;99.90
28171;DHT22;15458;53.346;-1.688;2024-02-28T07:29:23;3.50;99.90
28171;DHT22;15458;53.346;-1.688;2024-02-28T07:31:52;3.50;99.90
28171;DHT22;15458;53.346;-1.688;2024-02-28T07:34:17;3.50;99.90
28171;DHT22;15458;53.346;-1.688;2024-02-28T07:36:43;3.50;99.90
28171;DHT22;15458;53.346;-1.688;2024-02-28T07:39:09;3.50;99.90
28171;DHT22;15458;53.346;-1.688;2024-02-28T07:41:38;3.60;99.90
28171;DHT22;15458;53.346;-1.688;2024-02-28T07:44:04;3.60;99.90
28171;DHT22;15458;53.346;-1.688;2024-02-28T07:46:30;3.60;99.90
28171;DHT22;15458;53.346;-1.688;2024-02-28T07:48:56;3.60;99.90
28171;DHT22;15458;53.346;-1.688;2024-02-28T07:51:22;3.60;99.90
28171;DHT22;15458;53.346;-1.688;2024-02-28T07:53:48;3.70;99.90
28171;DHT22;15458;53.346;-1.688;2024-02-28T07:56:17;3.70;99.90
28171;DHT22;15458;53.346;-1.688;2024-02-28T07:58:44;3.70;99.90
28171;DHT22;15458;53.346;-1.688;2024-02-28T08:01:10;3.80;99.90
28171;DHT22;15458;53.346;-1.688;2024-02-28T08:03:36;3.80;99.90
28171;DHT22;15458;53.346;-1.688;2024-02-28T08:06:02;3.80;99.90
28171;DHT22;15458;53.346;-1.688;2024-02-28T08:08:28;3.80;99.90
28171;DHT22;15458;53.346;-1.688;2024-02-28T08:10:54;3.80;99.90
28171;DHT22;15458;53.346;-1.688;2024-02-28T08:13:20;3.80;99.90
28171;DHT22;15458;53.346;-1.688;2024-02-28T08:15:45;3.90;99.90
28171;DHT22;15458;53.346;-1.688;2024-02-28T08:18:11;3.90;99.90
28171;DHT22;15458;53.346;-1.688;2024-02-28T08:20:38;3.90;99.90
28171;DHT22;15458;53.346;-1.688;2024-02-28T08:23:05;4.00;99.90
28171;DHT22;15458;53.346;-1.688;2024-02-28T08:25:31;4.00;99.90
28171;DHT22;15458;53.346;-1.688;2024-02-28T08:27:56;4.00;99.90
28171;DHT22;15458;53.346;-1.688;2024-02-28T08:30:22;4.00;99.90
28171;DHT22;15458;53.346;-1.688;2024-02-28T08:32:49;4.10;99.90
28171;DHT22;15458;53.346;-1.688;2024-02-28T08:35:16;4.10;99.90
28171;DHT22;15458;53.346;-1.688;2024-02-28T08:37:42;4.20;99.90
28171;DHT22;15458;53.346;-1.688;2024-02-28T08:40:08;4.20;99.90
28171;DHT22;15458;53.346;-1.688;2024-02-28T08:42:34;4.30;99.90
28171;DHT22;15458;53.346;-1.688;2024-02-28T08:45:00;4.30;99.90
28171;DHT22;15458;53.346;-1.688;2024-02-28T08:47:26;4.40;99.90
28171;DHT22;15458;53.346;-1.688;2024-02-28T08:49:53;4.40;99.90
28171;DHT22;15458;53.346;-1.688;2024-02-28T08:52:19;4.50;99.90
28171;DHT22;15458;53.346;-1.688;2024-02-28T08:54:46;4.60;99.90
28171;DHT22;15458;53.346;-1.688;2024-02-28T08:57:12;4.60;99.90
28171;DHT22;15458;53.346;-1.688;2024-02-28T08:59:38;4.70;99.90
28171;DHT22;15458;53.346;-1.688;2024-02-28T09:02:06;4.80;99.90
28171;DHT22;15458;53.346;-1.688;2024-02-28T09:04:31;4.80;99.90
28171;DHT22;15458;53.346;-1.688;2024-02-28T09:06:57;4.80;99.90
28171;DHT22;15458;53.346;-1.688;2024-02-28T09:09:23;4.90;99.90
28171;DHT22;15458;53.346;-1.688;2024-02-28T09:11:49;4.90;99.90
28171;DHT22;15458;53.346;-1.688;2024-02-28T09:14:14;5.00;99.90
28171;DHT22;15458;53.346;-1.688;2024-02-28T09:16:40;5.00;99.90
28171;DHT22;15458;53.346;-1.688;2024-02-28T09:19:06;5.00;99.90
28171;DHT22;15458;53.346;-1.688;2024-02-28T09:21:31;5.10;99.90
28171;DHT22;15458;53.346;-1.688;2024-02-28T09:23:57;5.10;99.90
28171;DHT22;15458;53.346;-1.688;2024-02-28T09:26:23;5.20;99.90
28171;DHT22;15458;53.346;-1.688;2024-02-28T09:28:49;5.20;99.90
28171;DHT22;15458;53.346;-1.688;2024-02-28T09:31:14;5.20;99.90
28171;DHT22;15458;53.346;-1.688;2024-02-28T09:33:43;5.20;99.90
28171;DHT22;15458;53.346;-1.688;2024-02-28T09:36:12;5.20;99.90
28171;DHT22;15458;53.346;-1.688;2024-02-28T09:38:37;5.30;99.90
28171;DHT22;15458;53.346;-1.688;2024-02-28T09:41:04;5.30;99.90
28171;DHT22;15458;53.346;-1.688;2024-02-28T09:43:31;5.30;99.90
28171;DHT22;15458;53.346;-1.688;2024-02-28T09:46:04;5.30;99.90
28171;DHT22;15458;53.346;-1.688;2024-02-28T09:48:30;5.40;99.90
28171;DHT22;15458;53.346;-1.688;2024-02-28T09:51:06;5.40;99.90
28171;DHT22;15458;53.346;-1.688;2024-02-28T09:53:32;5.40;99.90
28171;DHT22;15458;53.346;-1.688;2024-02-28T09:55:58;5.40;99.90
28171;DHT22;15458;53.346;-1.688;2024-02-28T09:58:25;5.40;99.90
28171;DHT22;15458;53.346;-1.688;2024-02-28T10:00:52;5.40;99.90
28171;DHT22;15458;53.346;-1.688;2024-02-28T10:03:21;5.50;99.90
28171;DHT22;15458;53.346;-1.688;2024-02-28T10:05:48;5.50;99.90
28171;DHT22;15458;53.346;-1.688;2024-02-28T10:08:14;5.50;99.90
28171;DHT22;15458;53.346;-1.688;2024-02-28T10:10:47;5.60;99.90
28171;DHT22;15458;53.346;-1.688;2024-02-28T10:13:16;5.60;99.90
28171;DHT22;15458;53.346;-1.688;2024-02-28T10:15:43;5.60;99.90
28171;DHT22;15458;53.346;-1.688;2024-02-28T10:18:08;5.70;99.90
28171;DHT22;15458;53.346;-1.688;2024-02-28T10:20:34;5.70;99.90
28171;DHT22;15458;53.346;-1.688;2024-02-28T10:23:04;5.70;99.90
28171;DHT22;15458;53.346;-1.688;2024-02-28T10:25:31;5.70;99.90
28171;DHT22;15458;53.346;-1.688;2024-02-28T10:28:03;5.80;99.90
28171;DHT22;15458;53.346;-1.688;2024-02-28T10:30:28;5.90;99.90
28171;DHT22;15458;53.346;-1.688;2024-02-28T10:32:54;5.90;99.90
28171;DHT22;15458;53.346;-1.688;2024-02-28T10:35:21;6.00;99.90
28171;DHT22;15458;53.346;-1.688;2024-02-28T10:37:51;6.10;99.90
28171;DHT22;15458;53.346;-1.688;2024-02-28T10:40:20;6.30;99.90
28171;DHT22;15458;53.346;-1.688;2024-02-28T10:42:48;6.40;99.90
28171;DHT22;15458;53.346;-1.688;2024-02-28T10:45:17;6.40;99.90
28171;DHT22;15458;53.346;-1.688;2024-02-28T10:47:43;6.50;99.90
28171;DHT22;15458;53.346;-1.688;2024-02-28T10:50:09;6.60;99.90
28171;DHT22;15458;53.346;-1.688;2024-02-28T10:52:41;6.60;99.90
28171;DHT22;15458;53.346;-1.688;2024-02-28T10:55:10;6.60;99.90
28171;DHT22;15458;53.346;-1.688;2024-02-28T10:57:37;6.70;99.90
28171;DHT22;15458;53.346;-1.688;2024-02-28T11:00:05;6.70;99.90
28171;DHT22;15458;53.346;-1.688;2024-02-28T11:02:34;6.70;99.90
28171;DHT22;15458;53.346;-1.688;2024-02-28T11:08:10;6.80;99.90
28171;DHT22;15458;53.346;-1.688;2024-02-28T11:10:42;6.80;99.90
28171;DHT22;15458;53.346;-1.688;2024-02-28T11:13:31;6.80;99.90
28171;DHT22;15458;53.346;-1.688;2024-02-28T11:16:43;6.70;99.90
28171;DHT22;15458;53.346;-1.688;2024-02-28T11:23:01;6.70;99.90
28171;DHT22;15458;53.346;-1.688;2024-02-28T11:25:27;6.70;99.90
28171;DHT22;15458;53.346;-1.688;2024-02-28T11:28:33;6.70;99.90
28171;DHT22;15458;53.346;-1.688;2024-02-28T11:31:34;6.80;99.90
28171;DHT22;15458;53.346;-1.688;2024-02-28T11:34:05;6.80;99.90
28171;DHT22;15458;53.346;-1.688;2024-02-28T11:36:49;6.80;99.90
28171;DHT22;15458;53.346;-1.688;2024-02-28T11:43:48;7.10;99.90
28171;DHT22;15458;53.346;-1.688;2024-02-28T11:46:55;7.50;99.90
28171;DHT22;15458;53.346;-1.688;2024-02-28T11:49:59;7.90;99.90
28171;DHT22;15458;53.346;-1.688;2024-02-28T11:53:01;8.50;99.90
28171;DHT22;15458;53.346;-1.688;2024-02-28T11:56:05;8.90;99.90
28171;DHT22;15458;53.346;-1.688;2024-02-28T11:58:33;9.20;99.90
28171;DHT22;15458;53.346;-1.688;2024-02-28T12:00:59;9.40;99.90
28171;DHT22;15458;53.346;-1.688;2024-02-28T12:03:25;9.50;99.90
28171;DHT22;15458;53.346;-1.688;2024-02-28T12:05:52;9.70;99.90
28171;DHT22;15458;53.346;-1.688;2024-02-28T12:08:19;9.80;99.90
28171;DHT22;15458;53.346;-1.688;2024-02-28T12:10:46;9.80;99.90
28171;DHT22;15458;53.346;-1.688;2024-02-28T12:13:16;9.90;99.90
28171;DHT22;15458;53.346;-1.688;2024-02-28T12:15:43;9.90;99.90
28171;DHT22;15458;53.346;-1.688;2024-02-28T12:21:31;9.70;99.90
28171;DHT22;15458;53.346;-1.688;2024-02-28T12:23:57;9.60;99.90
28171;DHT22;15458;53.346;-1.688;2024-02-28T12:26:23;9.70;99.90
28171;DHT22;15458;53.346;-1.688;2024-02-28T12:28:49;9.60;99.90
28171;DHT22;15458;53.346;-1.688;2024-02-28T12:31:14;9.70;99.90
28171;DHT22;15458;53.346;-1.688;2024-02-28T12:33:40;9.70;99.90
28171;DHT22;15458;53.346;-1.688;2024-02-28T12:36:07;9.70;99.90
28171;DHT22;15458;53.346;-1.688;2024-02-28T12:38:33;9.70;99.90
28171;DHT22;15458;53.346;-1.688;2024-02-28T12:40:59;9.60;99.90
28171;DHT22;15458;53.346;-1.688;2024-02-28T12:43:25;9.60;99.90
28171;DHT22;15458;53.346;-1.688;2024-02-28T12:45:51;9.70;99.90
28171;DHT22;15458;53.346;-1.688;2024-02-28T12:48:16;9.70;99.90
28171;DHT22;15458;53.346;-1.688;2024-02-28T12:50:42;9.70;99.90
28171;DHT22;15458;53.346;-1.688;2024-02-28T12:53:08;9.70;99.90
28171;DHT22;15458;53.346;-1.688;2024-02-28T12:55:33;9.80;99.90
28171;DHT22;15458;53.346;-1.688;2024-02-28T12:57:59;9.90;99.90
28171;DHT22;15458;53.346;-1.688;2024-02-28T13:00:26;10.00;99.90
28171;DHT22;15458;53.346;-1.688;2024-02-28T13:02:52;10.10;99.90
28171;DHT22;15458;53.346;-1.688;2024-02-28T13:05:18;10.20;99.90
28171;DHT22;15458;53.346;-1.688;2024-02-28T13:07:43;10.30;99.90
28171;DHT22;15458;53.346;-1.688;2024-02-28T13:10:09;10.20;99.90
28171;DHT22;15458;53.346;-1.688;2024-02-28T13:12:35;10.20;99.90
28171;DHT22;15458;53.346;-1.688;2024-02-28T13:15:01;10.20;99.90
28171;DHT22;15458;53.346;-1.688;2024-02-28T13:17:26;10.10;99.90
28171;DHT22;15458;53.346;-1.688;2024-02-28T13:19:52;10.00;99.90
28171;DHT22;15458;53.346;-1.688;2024-02-28T13:22:18;9.90;99.90
28171;DHT22;15458;53.346;-1.688;2024-02-28T13:24:44;9.80;99.90
28171;DHT22;15458;53.346;-1.688;2024-02-28T13:27:09;9.80;99.90
28171;DHT22;15458;53.346;-1.688;2024-02-28T13:29:35;9.70;99.90
28171;DHT22;15458;53.346;-1.688;2024-02-28T13:32:01;9.70;99.90
28171;DHT22;15458;53.346;-1.688;2024-02-28T13:34:27;9.70;99.90
28171;DHT22;15458;53.346;-1.688;2024-02-28T13:36:55;9.60;99.90
28171;DHT22;15458;53.346;-1.688;2024-02-28T13:39:20;9.50;99.90
28171;DHT22;15458;53.346;-1.688;2024-02-28T13:41:49;9.50;99.90
28171;DHT22;15458;53.346;-1.688;2024-02-28T13:44:17;9.40;99.90
28171;DHT22;15458;53.346;-1.688;2024-02-28T13:46:47;9.30;99.90
28171;DHT22;15458;53.346;-1.688;2024-02-28T13:49:15;9.30;99.90
28171;DHT22;15458;53.346;-1.688;2024-02-28T13:51:42;9.30;99.90
28171;DHT22;15458;53.346;-1.688;2024-02-28T13:54:08;9.20;99.90
28171;DHT22;15458;53.346;-1.688;2024-02-28T13:56:34;9.30;99.90
28171;DHT22;15458;53.346;-1.688;2024-02-28T13:58:59;9.20;99.90
28171;DHT22;15458;53.346;-1.688;2024-02-28T14:01:25;9.20;99.90
28171;DHT22;15458;53.346;-1.688;2024-02-28T14:03:51;9.20;99.90
28171;DHT22;15458;53.346;-1.688;2024-02-28T14:06:17;9.20;99.90
28171;DHT22;15458;53.346;-1.688;2024-02-28T14:08:43;9.20;99.90
28171;DHT22;15458;53.346;-1.688;2024-02-28T14:11:08;9.20;99.90
28171;DHT22;15458;53.346;-1.688;2024-02-28T14:13:34;9.20;99.90
28171;DHT22;15458;53.346;-1.688;2024-02-28T14:16:01;9.30;99.90
28171;DHT22;15458;53.346;-1.688;2024-02-28T14:18:27;9.30;99.90
28171;DHT22;15458;53.346;-1.688;2024-02-28T14:20:53;9.30;99.90
28171;DHT22;15458;53.346;-1.688;2024-02-28T14:23:19;9.40;99.90
28171;DHT22;15458;53.346;-1.688;2024-02-28T14:25:46;9.40;99.90
28171;DHT22;15458;53.346;-1.688;2024-02-28T14:28:12;9.40;99.90
28171;DHT22;15458;53.346;-1.688;2024-02-28T14:30:38;9.40;99.90
28171;DHT22;15458;53.346;-1.688;2024-02-28T14:33:04;9.40;99.90
28171;DHT22;15458;53.346;-1.688;2024-02-28T14:35:30;9.30;99.90
28171;DHT22;15458;53.346;-1.688;2024-02-28T14:37:55;9.40;99.90
28171;DHT22;15458;53.346;-1.688;2024-02-28T14:40:21;9.30;99.90
28171;DHT22;15458;53.346;-1.688;2024-02-28T14:42:47;9.30;99.90
28171;DHT22;15458;53.346;-1.688;2024-02-28T14:45:13;9.30;99.90
28171;DHT22;15458;53.346;-1.688;2024-02-28T14:47:43;9.30;99.90
28171;DHT22;15458;53.346;-1.688;2024-02-28T14:50:10;9.30;99.90
28171;DHT22;15458;53.346;-1.688;2024-02-28T14:52:37;9.20;99.90
28171;DHT22;15458;53.346;-1.688;2024-02-28T14:55:04;9.20;99.90
28171;DHT22;15458;53.346;-1.688;2024-02-28T14:57:30;9.10;99.90
28171;DHT22;15458;53.346;-1.688;2024-02-28T14:59:57;9.10;99.90
28171;DHT22;15458;53.346;-1.688;2024-02-28T15:02:23;9.10;99.90
28171;DHT22;15458;53.346;-1.688;2024-02-28T15:04:48;9.10;99.90
28171;DHT22;15458;53.346;-1.688;2024-02-28T15:07:15;9.10;99.90
28171;DHT22;15458;53.346;-1.688;2024-02-28T15:09:41;9.00;99.90
28171;DHT22;15458;53.346;-1.688;2024-02-28T15:12:07;9.00;99.90
28171;DHT22;15458;53.346;-1.688;2024-02-28T15:14:33;9.00;99.90
28171;DHT22;15458;53.346;-1.688;2024-02-28T15:17:00;9.00;99.90
28171;DHT22;15458;53.346;-1.688;2024-02-28T15:19:25;9.00;99.90
28171;DHT22;15458;53.346;-1.688;2024-02-28T15:21:56;9.00;99.90
28171;DHT22;15458;53.346;-1.688;2024-02-28T15:24:22;9.00;99.90
28171;DHT22;15458;53.346;-1.688;2024-02-28T15:26:48;9.00;99.90
28171;DHT22;15458;53.346;-1.688;2024-02-28T15:29:16;9.00;99.90
28171;DHT22;15458;53.346;-1.688;2024-02-28T15:31:43;9.00;99.90
28171;DHT22;15458;53.346;-1.688;2024-02-28T15:34:09;9.00;99.90
28171;DHT22;15458;53.346;-1.688;2024-02-28T15:36:35;9.00;99.90
28171;DHT22;15458;53.346;-1.688;2024-02-28T15:39:01;9.00;99.90
28171;DHT22;15458;53.346;-1.688;2024-02-28T15:41:27;9.00;99.90
28171;DHT22;15458;53.346;-1.688;2024-02-28T15:43:53;9.10;99.90